Time;durP1;ratioP1;P1;durP2;ratioP2;P2;SDS_P1;SDS_P2;PMS_P1;PMS_P2;Temp;Humidity;BMP_temperature;BMP_pressure;BME280_temperature;BME280_humidity;BME280_pressure;Samples;Min_cycle;Max_cycle;Signal;HPM_P1;HPM_P2
2021/06/23 01:13:34;;;;;;;;;;;;;;;;;;;;;
2021/06/23 03:31:43;;;;;;;8.57;3.90;;;;;;;13.58;82.32;92588.22;5207516;24;20060;-80
2021/06/23 03:34:11;;;;;;;9.00;3.95;;;;;;;13.57;82.38;92580.63;4754073;30;20051;-78
2021/06/23 03:36:52;;;;;;;7.70;3.75;;;;;;;13.58;81.86;92580.34;4769549;30;20051;-79
2021/06/23 03:39:18;;;;;;;7.15;4.00;;;;;;;13.56;81.31;92584.34;4753399;30;20044;-78
2021/06/23 03:41:53;;;;;;;7.88;3.80;;;;;;;13.57;81.56;92583.25;4740338;30;20571;-78
2021/06/23 03:44:19;;;;;;;8.63;4.00;;;;;;;13.59;81.68;92578.47;4770362;30;20043;-78
2021/06/23 03:46:45;;;;;;;7.20;3.67;;;;;;;13.62;81.52;92581.28;4754636;30;20083;-78
2021/06/23 03:49:11;;;;;;;10.35;4.10;;;;;;;13.67;81.71;92588.28;4739267;30;20046;-79
2021/06/23 03:51:38;;;;;;;12.95;4.05;;;;;;;13.70;81.88;92595.56;4755362;30;20052;-77
2021/06/23 03:54:06;;;;;;;7.32;4.10;;;;;;;13.71;81.88;92597.91;4728861;30;20056;-78
2021/06/23 03:56:32;;;;;;;7.18;3.63;;;;;;;13.72;81.83;92609.19;4773529;30;20039;-78
2021/06/23 03:58:58;;;;;;;7.50;3.85;;;;;;;13.72;81.16;92603.94;4742356;30;20510;-78
2021/06/23 04:01:24;;;;;;;8.43;4.05;;;;;;;13.73;81.39;92606.25;4773083;30;20120;-78
2021/06/23 04:04:09;;;;;;;14.18;4.30;;;;;;;13.76;81.47;92604.88;4772784;30;20070;-78
2021/06/23 04:07:00;;;;;;;8.90;4.10;;;;;;;13.81;81.52;92612.63;4771038;30;20055;-78
2021/06/23 04:09:29;;;;;;;7.30;3.60;;;;;;;13.83;81.20;92618.38;4728363;30;20044;-78
2021/06/23 04:12:04;;;;;;;15.93;4.18;;;;;;;13.85;81.18;92621.47;4756570;30;20053;-78
2021/06/23 04:14:39;;;;;;;8.07;3.97;;;;;;;13.86;81.21;92619.63;4743018;30;20051;-78
2021/06/23 04:17:06;;;;;;;8.90;3.67;;;;;;;13.91;81.14;92622.09;4759755;30;20048;-78
2021/06/23 04:19:32;;;;;;;10.10;3.88;;;;;;;13.95;81.11;92630.97;4756716;30;20040;-77
2021/06/23 04:22:00;;;;;;;8.93;4.07;;;;;;;13.98;81.24;92622.44;4755780;30;20042;-77
2021/06/23 04:24:27;;;;;;;12.48;3.85;;;;;;;14.01;81.24;92629.75;4740988;30;20414;-78
2021/06/23 04:26:54;;;;;;;13.13;3.85;;;;;;;14.05;80.86;92628.06;4740851;30;20050;-75
2021/06/23 04:29:21;;;;;;;12.43;4.18;;;;;;;14.10;80.73;92629.78;4740272;30;20063;-76
2021/06/23 04:31:51;;;;;;;8.10;4.13;;;;;;;14.18;80.31;92641.44;4736127;30;20416;-76
2021/06/23 04:34:18;;;;;;;12.18;3.80;;;;;;;14.24;80.66;92638.34;4737300;30;20048;-74
2021/06/23 04:36:47;;;;;;;9.07;3.95;;;;;;;14.31;80.32;92636.06;4723772;30;20028;-75
2021/06/23 04:39:13;;;;;;;11.25;3.85;;;;;;;14.40;80.94;92630.81;4737044;30;20100;-76
2021/06/23 04:41:54;;;;;;;13.63;5.78;;;;;;;14.47;80.18;92644.31;4737033;30;20460;-76
2021/06/23 04:44:19;;;;;;;13.02;3.80;;;;;;;14.59;79.85;92646.41;4737249;30;20052;-76
2021/06/23 04:46:45;;;;;;;13.60;4.53;;;;;;;14.69;79.32;92640.84;4722435;30;20121;-75
2021/06/23 04:49:11;;;;;;;10.20;4.30;;;;;;;14.81;78.92;92642.09;4736771;30;20052;-76
2021/06/23 04:52:06;;;;;;;11.73;3.80;;;;;;;14.95;78.95;92640.09;4748085;30;20045;-76
2021/06/23 04:54:32;;;;;;;9.63;4.10;;;;;;;15.06;78.57;92646.59;4736759;30;20048;-76
2021/06/23 04:56:58;;;;;;;12.73;4.32;;;;;;;15.19;78.28;92644.91;4752765;30;20051;-75
2021/06/23 04:59:23;;;;;;;7.55;3.75;;;;;;;15.32;78.08;92645.84;4736704;30;20048;-76
2021/06/23 05:01:49;;;;;;;8.88;4.10;;;;;;;15.43;78.12;92646.31;4752385;30;20122;-76
2021/06/23 05:04:15;;;;;;;11.73;3.85;;;;;;;15.56;77.93;92655.94;4751682;30;20411;-76
2021/06/23 05:06:40;;;;;;;11.52;4.30;;;;;;;15.65;77.78;92645.34;4736538;30;20048;-76
2021/06/23 05:09:06;;;;;;;7.30;3.55;;;;;;;15.78;77.18;92647.06;4722263;30;20052;-75
2021/06/23 05:11:35;;;;;;;11.00;4.20;;;;;;;15.84;77.34;92651.09;4752239;30;20047;-76
2021/06/23 05:14:01;;;;;;;10.20;4.47;;;;;;;15.91;76.97;92651.38;4752514;30;20051;-76
2021/06/23 05:16:29;;;;;;;9.65;3.97;;;;;;;16.02;76.53;92651.81;4736501;30;20097;-76
2021/06/23 05:18:55;;;;;;;8.55;3.92;;;;;;;16.16;77.12;92664.81;4752292;30;20400;-75
2021/06/23 05:21:21;;;;;;;14.35;4.05;;;;;;;16.29;76.06;92652.50;4736229;30;20051;-76
2021/06/23 05:23:47;;;;;;;10.60;4.15;;;;;;;16.45;76.04;92656.94;4736489;30;20040;-75
2021/06/23 05:26:13;;;;;;;8.75;4.50;;;;;;;16.61;76.68;92656.38;4736409;30;20060;-75
2021/06/23 05:28:38;;;;;;;8.43;3.67;;;;;;;16.77;75.75;92660.03;4736514;30;20075;-76
2021/06/23 05:31:05;;;;;;;11.10;4.25;;;;;;;16.92;75.70;92666.66;4744652;30;20056;-76
2021/06/23 05:33:30;;;;;;;8.32;4.00;;;;;;;17.10;75.11;92669.97;4753789;30;20047;-76
2021/06/23 05:35:56;;;;;;;10.70;4.55;;;;;;;17.25;74.54;92664.13;4769893;30;20521;-75
2021/06/23 05:38:22;;;;;;;7.38;3.90;;;;;;;17.41;74.08;92664.31;4753887;30;20100;-76
2021/06/23 05:40:47;;;;;;;13.00;4.53;;;;;;;17.54;73.89;92667.00;4769710;30;20052;-76
2021/06/23 05:43:13;;;;;;;5.85;3.67;;;;;;;17.63;74.15;92665.84;4754046;30;20047;-76
2021/06/23 05:45:39;;;;;;;7.63;3.70;;;;;;;17.76;74.10;92666.63;4768467;30;20123;-76
2021/06/23 05:48:05;;;;;;;10.75;4.10;;;;;;;17.94;73.94;92669.16;4769641;30;20127;-76
2021/06/23 05:50:31;;;;;;;12.15;3.63;;;;;;;18.19;73.11;92670.75;4753384;30;20218;-76
2021/06/23 05:52:57;;;;;;;10.60;3.72;;;;;;;21.17;61.41;92665.66;4753588;30;20475;-76
2021/06/23 05:55:23;;;;;;;8.18;3.55;;;;;;;21.50;59.67;92675.09;4753544;30;20134;-76
2021/06/23 05:57:50;;;;;;;8.98;4.25;;;;;;;21.48;61.72;92675.47;4753472;30;20047;-76
2021/06/23 06:00:16;;;;;;;15.73;4.10;;;;;;;22.67;57.96;92683.72;4753214;30;20579;-76
2021/06/23 06:02:43;;;;;;;11.10;4.20;;;;;;;24.84;52.70;92672.69;4769674;30;20040;-76
2021/06/23 06:05:09;;;;;;;11.52;4.00;;;;;;;26.11;49.42;92675.69;4769302;30;20047;-76
2021/06/23 06:07:34;;;;;;;6.38;3.85;;;;;;;25.99;49.42;92678.75;4738479;30;20125;-75
2021/06/23 06:10:00;;;;;;;7.95;3.55;;;;;;;27.25;46.41;92674.31;4769502;30;20457;-76
2021/06/23 06:12:26;;;;;;;11.30;3.65;;;;;;;26.32;48.03;92686.50;4768975;30;20035;-76
2021/06/23 06:14:52;;;;;;;14.30;4.50;;;;;;;24.69;52.57;92691.28;4753142;30;20198;-76
2021/06/23 06:17:18;;;;;;;12.75;4.63;;;;;;;25.61;51.03;92686.19;4768920;30;20105;-76
2021/06/23 06:19:44;;;;;;;11.77;4.47;;;;;;;23.70;55.28;92689.81;4769100;30;20441;-76
2021/06/23 06:22:09;;;;;;;12.80;4.72;;;;;;;22.84;58.55;92688.59;4753090;30;20538;-76
2021/06/23 06:24:35;;;;;;;12.27;4.53;;;;;;;21.99;61.16;92693.94;4768852;30;20046;-76
2021/06/23 06:27:00;;;;;;;8.40;4.65;;;;;;;24.51;53.94;92699.16;4752847;30;20043;-76
2021/06/23 06:29:26;;;;;;;11.30;4.32;;;;;;;25.60;51.91;92692.69;4752800;30;20097;-76
2021/06/23 06:31:52;;;;;;;10.15;4.30;;;;;;;26.07;49.32;92701.72;4750519;30;20048;-76
2021/06/23 06:34:17;;;;;;;9.48;4.20;;;;;;;25.02;52.14;92700.34;4752848;30;20048;-76
2021/06/23 06:36:43;;;;;;;17.40;5.20;;;;;;;22.81;58.49;92701.91;4752715;30;20097;-76
2021/06/23 06:39:09;;;;;;;19.27;5.57;;;;;;;21.41;62.92;92702.72;4737926;30;20082;-76
2021/06/23 06:41:34;;;;;;;15.00;5.72;;;;;;;22.17;61.07;92702.28;4738012;30;20039;-76
2021/06/23 06:44:01;;;;;;;11.55;5.50;;;;;;;21.90;62.25;92711.28;4752826;30;20071;-76
2021/06/23 06:46:26;;;;;;;16.92;5.10;;;;;;;21.15;64.92;92703.25;4738060;30;20048;-76
2021/06/23 06:48:52;;;;;;;13.10;5.20;;;;;;;20.58;67.54;92705.34;4768607;30;20411;-76
2021/06/23 06:51:18;;;;;;;14.43;5.65;;;;;;;20.37;68.54;92712.75;4768247;30;20040;-76
2021/06/23 06:53:45;;;;;;;11.27;5.32;;;;;;;20.16;69.85;92716.41;4749666;30;20056;-76
2021/06/23 06:56:10;;;;;;;10.25;5.93;;;;;;;19.74;71.04;92716.03;4753752;30;20055;-76
2021/06/23 06:58:36;;;;;;;13.15;5.53;;;;;;;20.14;69.86;92721.28;4750133;30;20261;-76
2021/06/23 07:01:02;;;;;;;10.60;5.60;;;;;;;19.98;70.87;92720.50;4749635;30;20036;-75
2021/06/23 07:03:28;;;;;;;15.48;5.82;;;;;;;19.71;72.00;92725.44;4735189;30;20083;-76
2021/06/23 07:05:54;;;;;;;10.20;5.72;;;;;;;20.38;70.99;92722.28;4750601;30;20053;-76
2021/06/23 07:08:20;;;;;;;11.88;5.57;;;;;;;20.75;69.79;92719.41;4750829;30;20052;-76
2021/06/23 07:10:45;;;;;;;9.57;4.60;;;;;;;20.93;67.24;92725.94;4750974;30;20048;-77
2021/06/23 07:13:11;;;;;;;12.23;5.25;;;;;;;20.78;67.40;92730.16;4750049;30;20127;-76
2021/06/23 07:15:37;;;;;;;13.02;4.95;;;;;;;20.28;68.35;92730.75;4735173;30;20075;-77
2021/06/23 07:18:03;;;;;;;8.80;5.00;;;;;;;20.26;68.82;92730.31;4735150;30;20120;-77
2021/06/23 07:20:28;;;;;;;9.82;4.75;;;;;;;20.57;69.29;92730.38;4750649;30;20074;-76
2021/06/23 07:22:54;;;;;;;9.40;4.60;;;;;;;20.61;68.10;92735.81;4735154;30;20048;-77
2021/06/23 07:25:20;;;;;;;9.38;5.10;;;;;;;20.16;67.82;92728.94;4734525;30;20046;-76
2021/06/23 07:27:45;;;;;;;12.77;4.90;;;;;;;19.58;70.44;92734.53;4734859;30;20044;-76
2021/06/23 07:30:12;;;;;;;13.13;4.88;;;;;;;19.88;69.93;92727.06;4736683;30;20058;-76
2021/06/23 07:38:17;;;;;;;14.85;4.45;;;;;;;20.21;68.32;92719.94;4767774;30;20070;-76
2021/06/23 07:40:45;;;;;;;17.90;5.43;;;;;;;20.27;68.97;92724.69;4752768;30;20047;-76
2021/06/23 07:43:13;;;;;;;9.23;4.72;;;;;;;20.43;69.08;92730.00;4768410;30;20052;-77
2021/06/23 07:45:45;;;;;;;13.30;4.85;;;;;;;20.69;68.35;92728.75;4756088;30;20039;-74
2021/06/23 07:48:11;;;;;;;9.60;4.80;;;;;;;20.68;67.90;92729.91;4767605;30;20095;-74
2021/06/23 07:50:52;;;;;;;9.75;4.70;;;;;;;20.55;67.49;92727.25;4767930;30;20280;-76
2021/06/23 07:53:30;;;;;;;9.97;4.90;;;;;;;20.73;67.39;92725.06;4739559;30;20079;-76
2021/06/23 07:56:36;;;;;;;15.50;4.88;;;;;;;20.77;67.18;92727.84;4752330;30;20453;-77
2021/06/23 08:09:52;;;;;;;14.02;4.82;;;;;;;21.23;67.66;92725.47;4768099;30;20070;-76
2021/06/23 08:12:22;;;;;;;10.70;4.97;;;;;;;21.47;65.65;92721.06;4736722;30;20523;-76
2021/06/23 08:14:48;;;;;;;16.15;4.60;;;;;;;21.69;65.25;92725.72;4751436;30;20062;-76
2021/06/23 08:17:14;;;;;;;9.93;4.75;;;;;;;21.68;66.22;92726.84;4751457;30;20421;-77
2021/06/23 08:19:39;;;;;;;10.60;4.45;;;;;;;21.92;65.55;92725.03;4767494;30;20515;-77
2021/06/23 08:22:05;;;;;;;11.73;4.60;;;;;;;21.72;64.00;92722.34;4737059;30;20051;-76
2021/06/23 08:24:31;;;;;;;11.50;4.82;;;;;;;21.26;64.82;92719.47;4751484;30;20051;-77
2021/06/23 08:26:57;;;;;;;11.85;5.50;;;;;;;21.55;64.89;92722.78;4767654;30;20075;-76
2021/06/23 08:29:22;;;;;;;8.93;4.25;;;;;;;21.89;62.78;92720.41;4766183;30;20148;-76
2021/06/23 08:31:48;;;;;;;11.02;4.38;;;;;;;21.42;65.21;92717.56;4749319;30;20064;-77
2021/06/23 08:34:14;;;;;;;10.60;4.70;;;;;;;21.62;64.86;92722.91;4734468;30;20044;-76
2021/06/23 08:36:39;;;;;;;11.40;5.30;;;;;;;21.62;64.77;92722.91;4734100;30;20048;-77
2021/06/23 08:39:05;;;;;;;12.25;5.05;;;;;;;21.77;62.34;92721.31;4737210;30;20055;-76
2021/06/23 08:41:33;;;;;;;10.80;4.70;;;;;;;21.32;64.68;92714.63;4752784;30;20069;-76
2021/06/23 08:43:59;;;;;;;12.48;4.32;;;;;;;21.57;64.86;92720.50;4737022;30;20113;-76
2021/06/23 08:46:25;;;;;;;8.20;4.72;;;;;;;21.72;64.30;92722.34;4751545;30;20408;-76
2021/06/23 08:48:51;;;;;;;9.27;5.38;;;;;;;21.97;63.12;92720.19;4736834;30;20036;-76
2021/06/23 08:51:17;;;;;;;16.33;5.47;;;;;;;21.82;62.78;92718.38;4752431;30;20040;-76
2021/06/23 08:53:43;;;;;;;10.18;4.45;;;;;;;21.87;63.50;92720.75;4752598;30;20068;-76
2021/06/23 08:56:09;;;;;;;10.30;4.50;;;;;;;22.20;56.37;92720.25;4752659;30;20078;-76
2021/06/23 08:58:35;;;;;;;12.50;3.75;;;;;;;22.49;53.01;92712.78;4736757;30;20492;-76
2021/06/23 09:01:01;;;;;;;11.18;4.82;;;;;;;22.13;61.21;92722.00;4736554;30;20052;-76
2021/06/23 09:03:27;;;;;;;9.20;4.53;;;;;;;22.15;62.16;92725.09;4752405;30;20511;-76
2021/06/23 09:05:55;;;;;;;12.30;5.28;;;;;;;22.25;63.12;92721.91;4752563;30;20040;-76
2021/06/23 09:08:30;;;;;;;14.18;4.50;;;;;;;22.26;62.88;92720.75;4752499;30;20066;-76
2021/06/23 09:10:56;;;;;;;9.90;4.28;;;;;;;22.24;61.14;92721.09;4736416;30;20564;-76
2021/06/23 09:13:22;;;;;;;15.35;4.57;;;;;;;22.51;61.14;92728.44;4736639;30;20079;-76
2021/06/23 09:15:58;;;;;;;12.10;4.80;;;;;;;22.48;59.71;92732.59;4752283;30;20082;-76
2021/06/23 09:18:39;;;;;;;9.18;4.97;;;;;;;22.52;59.39;92730.75;4752265;30;20051;-76
2021/06/23 09:21:06;;;;;;;12.30;4.63;;;;;;;22.70;57.52;92735.59;4752314;30;20487;-76
2021/06/23 09:23:52;;;;;;;10.68;4.18;;;;;;;22.93;58.32;92728.38;4752150;30;20120;-76
2021/06/23 09:26:24;;;;;;;9.32;4.22;;;;;;;22.93;58.25;92727.63;4736148;30;20044;-76
2021/06/23 09:29:11;;;;;;;12.15;4.25;;;;;;;22.48;58.22;92734.50;4751995;30;20139;-76
2021/06/23 09:31:55;;;;;;;8.30;4.00;;;;;;;22.63;55.93;92742.38;4764198;30;20055;-76
2021/06/23 09:34:30;;;;;;;12.80;4.55;;;;;;;22.86;60.01;92738.94;4770005;30;20048;-76
2021/06/23 09:36:56;;;;;;;8.63;3.85;;;;;;;22.96;55.80;92741.00;4770254;30;20040;-76
2021/06/23 09:39:28;;;;;;;9.93;4.30;;;;;;;22.96;52.54;92733.00;4769501;30;20185;-76
2021/06/23 09:41:55;;;;;;;11.98;3.47;;;;;;;23.52;47.46;92728.88;4753682;30;20035;-76
2021/06/23 09:44:23;;;;;;;11.75;4.22;;;;;;;23.77;49.36;92737.25;4769984;30;20057;-76
2021/06/23 09:46:51;;;;;;;13.02;3.53;;;;;;;23.70;50.02;92734.47;4769637;30;20032;-76
2021/06/23 09:49:25;;;;;;;7.88;3.90;;;;;;;23.97;51.19;92729.09;4769180;30;20043;-76
2021/06/23 09:51:56;;;;;;;11.38;3.30;;;;;;;24.51;48.21;92730.50;4769344;30;20402;-76
2021/06/23 09:54:24;;;;;;;12.07;4.20;;;;;;;24.52;47.05;92732.81;4769599;30;20043;-76
2021/06/23 09:56:50;;;;;;;11.93;3.85;;;;;;;24.29;47.04;92734.81;4769711;30;20044;-76
2021/06/23 10:02:02;;;;;;;11.93;3.58;;;;;;;24.42;48.71;92744.13;4769109;30;20048;-76
2021/06/23 10:04:35;;;;;;;11.05;3.58;;;;;;;24.48;47.39;92744.63;4768194;30;20496;-76
2021/06/23 10:07:02;;;;;;;8.13;3.67;;;;;;;24.73;46.43;92731.47;4769296;30;20040;-76
2021/06/23 10:09:30;;;;;;;16.05;4.00;;;;;;;24.72;47.92;92733.38;4768220;30;20055;-76
2021/06/23 10:12:07;;;;;;;9.70;3.38;;;;;;;24.93;41.72;92740.06;4769125;30;20134;-76
2021/06/23 10:14:47;;;;;;;10.93;3.50;;;;;;;25.07;45.14;92729.47;4753294;30;20498;-76
2021/06/23 10:17:13;;;;;;;11.13;3.70;;;;;;;25.02;45.78;92737.84;4770893;30;20039;-76
2021/06/23 10:19:41;;;;;;;14.57;3.92;;;;;;;24.71;46.76;92739.84;4773250;30;20032;-76
2021/06/23 10:22:08;;;;;;;10.70;3.70;;;;;;;25.17;46.59;92740.63;4768814;30;20090;-76
2021/06/23 10:24:34;;;;;;;8.25;3.80;;;;;;;25.28;45.36;92752.22;4752846;30;20578;-76
2021/06/23 10:27:04;;;;;;;10.50;3.85;;;;;;;25.12;46.28;92742.50;4769294;30;20050;-76
2021/06/23 10:29:32;;;;;;;16.98;3.88;;;;;;;25.23;46.15;92739.94;4752751;30;20035;-76
2021/06/23 10:31:59;;;;;;;12.65;3.58;;;;;;;25.77;44.42;92738.34;4750187;30;20519;-76
2021/06/23 10:34:26;;;;;;;10.00;4.22;;;;;;;25.27;45.52;92729.25;4767715;30;20040;-76
2021/06/23 10:36:53;;;;;;;7.95;3.80;;;;;;;24.66;46.69;92732.19;4768708;30;20052;-76
2021/06/23 10:39:20;;;;;;;16.60;4.18;;;;;;;24.67;47.22;92741.72;4768613;30;20507;-76
2021/06/23 10:41:49;;;;;;;10.55;4.07;;;;;;;24.97;47.05;92734.72;4768514;30;20422;-76
2021/06/23 10:44:27;;;;;;;12.65;4.57;;;;;;;24.77;47.72;92742.19;4768729;30;20036;-76
2021/06/23 10:46:56;;;;;;;10.35;4.25;;;;;;;24.94;49.12;92754.97;4768373;30;20032;-76
2021/06/23 10:49:50;;;;;;;13.93;4.47;;;;;;;25.00;46.41;92758.84;4768588;30;20039;-76
2021/06/23 10:52:22;;;;;;;13.40;4.50;;;;;;;25.04;47.66;92750.84;4763919;30;20047;-76
2021/06/23 10:54:58;;;;;;;16.88;4.72;;;;;;;25.17;47.69;92751.34;4752667;30;20043;-76
2021/06/23 10:57:43;;;;;;;11.63;4.40;;;;;;;24.45;47.51;92746.09;4752609;30;20035;-75
2021/06/23 11:00:12;;;;;;;14.30;5.10;;;;;;;24.81;46.99;92748.34;4769408;30;20460;-75
2021/06/23 11:02:42;;;;;;;14.73;5.20;;;;;;;25.33;47.48;92758.00;4768340;30;20043;-75
2021/06/23 11:05:18;;;;;;;15.82;4.70;;;;;;;25.08;48.67;92755.13;4768344;30;20048;-75
2021/06/23 11:07:51;;;;;;;15.82;4.95;;;;;;;24.68;48.76;92751.31;4768208;30;20554;-75
2021/06/23 11:10:30;;;;;;;17.83;5.47;;;;;;;25.50;47.61;92729.78;4752422;30;20054;-75
2021/06/23 11:13:04;;;;;;;14.10;4.72;;;;;;;25.26;47.70;92730.38;4767770;30;20052;-77
2021/06/23 11:15:33;;;;;;;11.85;4.90;;;;;;;24.92;46.85;92744.63;4768130;30;20063;-77
2021/06/23 11:18:37;;;;;;;13.15;4.85;;;;;;;25.09;47.19;92737.88;4768172;30;20050;-77
2021/06/23 11:21:06;;;;;;;15.40;5.10;;;;;;;25.13;47.00;92745.97;4766725;30;20154;-76
2021/06/23 11:23:41;;;;;;;16.80;4.82;;;;;;;25.33;46.88;92738.47;4751914;30;20047;-75
2021/06/23 11:26:29;;;;;;;12.75;5.38;;;;;;;24.51;46.52;92750.00;4768030;30;20044;-76
2021/06/23 11:29:10;;;;;;;21.70;5.93;;;;;;;24.55;46.05;92755.38;4767830;30;20047;-76
2021/06/23 11:31:49;;;;;;;13.65;5.20;;;;;;;24.65;48.92;92759.28;4751051;30;20065;-74
2021/06/23 11:34:40;;;;;;;12.70;4.63;;;;;;;24.90;44.77;92757.63;4750215;30;20108;-77
2021/06/23 11:37:07;;;;;;;16.38;4.90;;;;;;;24.69;46.30;92754.75;4750233;30;20119;-77
2021/06/23 11:39:33;;;;;;;13.00;4.70;;;;;;;24.93;45.51;92761.47;4750238;30;20044;-77
2021/06/23 11:41:59;;;;;;;14.80;5.60;;;;;;;24.97;46.82;92762.28;4750120;30;20036;-77
2021/06/23 11:44:25;;;;;;;18.90;4.97;;;;;;;24.97;46.86;92756.94;4749865;30;20052;-75
2021/06/23 11:46:50;;;;;;;15.20;5.45;;;;;;;24.81;45.81;92751.03;4750039;30;20040;-77
2021/06/23 11:49:16;;;;;;;18.15;5.55;;;;;;;24.90;46.31;92752.28;4750360;30;20057;-77
2021/06/23 11:51:43;;;;;;;16.20;5.20;;;;;;;24.86;44.86;92746.13;4749958;30;20469;-77
2021/06/23 11:54:10;;;;;;;12.00;5.53;;;;;;;25.05;45.70;92737.09;4749151;30;20036;-75
2021/06/23 11:56:36;;;;;;;13.95;5.30;;;;;;;24.87;46.13;92736.94;4749987;30;20052;-74
2021/06/23 11:59:02;;;;;;;18.02;5.68;;;;;;;25.19;44.53;92723.06;4749741;30;20059;-75
2021/06/23 12:01:28;;;;;;;25.40;6.10;;;;;;;25.34;44.57;92734.66;4749887;30;20113;-75
2021/06/23 12:03:55;;;;;;;18.77;6.32;;;;;;;25.14;46.23;92747.50;4749913;30;20044;-75
2021/06/23 12:06:21;;;;;;;18.10;5.80;;;;;;;25.10;46.83;92750.13;4733844;30;20048;-75
2021/06/23 12:08:47;;;;;;;14.55;5.57;;;;;;;24.69;46.81;92752.84;4749557;30;20056;-75
2021/06/23 12:11:12;;;;;;;14.65;5.60;;;;;;;24.56;45.21;92748.13;4749690;30;20118;-75
2021/06/23 12:13:39;;;;;;;14.15;5.70;;;;;;;24.55;45.53;92746.59;4752594;30;20414;-74
2021/06/23 12:16:04;;;;;;;16.92;5.88;;;;;;;24.94;45.13;92725.53;4753133;30;20043;-75
2021/06/23 12:18:30;;;;;;;13.88;5.03;;;;;;;24.78;45.12;92733.03;4752926;30;20385;-75
2021/06/23 12:20:56;;;;;;;17.70;5.07;;;;;;;24.47;46.01;92743.03;4752863;30;20488;-76
2021/06/23 12:23:22;;;;;;;14.70;5.15;;;;;;;24.72;45.85;92741.41;4753123;30;20044;-75
2021/06/23 12:25:50;;;;;;;13.50;5.50;;;;;;;25.01;44.77;92738.97;4736903;30;20044;-74
2021/06/23 12:28:16;;;;;;;13.00;5.90;;;;;;;24.78;46.78;92733.81;4753032;30;20043;-75
2021/06/23 12:30:44;;;;;;;12.18;5.45;;;;;;;25.00;45.75;92732.09;4758332;30;20082;-75
2021/06/23 12:33:12;;;;;;;16.35;5.85;;;;;;;24.90;45.20;92732.75;4770619;30;20127;-74
2021/06/23 12:35:39;;;;;;;17.60;6.30;;;;;;;24.96;45.54;92725.94;4770648;30;20035;-75
2021/06/23 12:38:07;;;;;;;13.98;5.82;;;;;;;24.98;46.45;92734.34;4770381;30;20059;-75
2021/06/23 12:40:32;;;;;;;14.15;5.60;;;;;;;24.70;47.02;92757.06;4770474;30;20039;-75
2021/06/23 12:42:58;;;;;;;25.75;6.70;;;;;;;24.47;44.68;92756.41;4770133;30;20035;-75
2021/06/23 12:45:25;;;;;;;15.38;5.82;;;;;;;24.87;44.41;92755.69;4770194;30;20047;-75
2021/06/23 12:47:50;;;;;;;12.88;5.50;;;;;;;24.78;46.91;92751.78;4770115;30;20039;-75
2021/06/23 12:50:18;;;;;;;16.27;6.05;;;;;;;25.30;44.70;92741.91;4754873;30;20060;-78
2021/06/23 12:52:48;;;;;;;21.02;6.53;;;;;;;25.16;45.04;92739.09;4769166;30;20048;-75
2021/06/23 12:55:17;;;;;;;25.05;6.25;;;;;;;25.13;45.83;92746.72;4770264;30;20128;-75
2021/06/23 12:57:43;;;;;;;17.45;6.20;;;;;;;25.11;43.94;92754.34;4770137;30;20451;-75
2021/06/23 13:00:11;;;;;;;18.58;6.35;;;;;;;25.16;44.20;92747.13;4769998;30;20562;-76
2021/06/23 13:02:37;;;;;;;16.52;6.05;;;;;;;25.05;45.25;92763.09;4768887;30;20060;-76
2021/06/23 13:05:07;;;;;;;18.40;6.13;;;;;;;24.98;43.31;92752.34;4769743;30;20122;-76
2021/06/23 13:07:32;;;;;;;17.40;6.53;;;;;;;25.09;44.37;92753.97;4754018;30;20028;-76
2021/06/23 13:10:00;;;;;;;15.13;5.70;;;;;;;24.99;45.37;92759.97;4753658;30;20112;-76
2021/06/23 13:12:25;;;;;;;16.92;6.05;;;;;;;24.78;45.74;92759.81;4753530;30;20047;-76
2021/06/23 13:14:51;;;;;;;19.33;7.10;;;;;;;24.76;44.90;92756.72;4769663;30;20423;-76
2021/06/23 13:17:18;;;;;;;17.73;6.50;;;;;;;24.60;46.37;92760.41;4769776;30;20032;-76
2021/06/23 13:19:43;;;;;;;18.95;6.57;;;;;;;24.42;47.26;92754.84;4770295;30;20377;-76
2021/06/23 13:22:11;;;;;;;21.00;7.05;;;;;;;24.40;46.63;92765.13;4769384;30;20491;-76
2021/06/23 13:24:37;;;;;;;12.60;5.80;;;;;;;24.18;45.70;92756.09;4768419;30;20048;-76
2021/06/23 13:27:03;;;;;;;18.85;6.13;;;;;;;24.08;45.21;92751.41;4769260;30;20446;-76
2021/06/23 13:29:29;;;;;;;16.20;6.35;;;;;;;24.17;45.48;92748.44;4753433;30;20503;-76
2021/06/23 13:31:55;;;;;;;12.30;5.97;;;;;;;24.05;44.01;92736.09;4734103;30;20062;-78
2021/06/23 13:34:20;;;;;;;13.50;6.22;;;;;;;24.26;44.93;92736.31;4752034;30;20388;-75
2021/06/23 13:36:46;;;;;;;19.98;7.05;;;;;;;23.84;44.68;92732.00;4751558;30;20407;-76
2021/06/23 13:39:13;;;;;;;15.45;5.97;;;;;;;23.96;45.76;92724.88;4735548;30;20415;-76
2021/06/23 13:41:42;;;;;;;15.45;6.18;;;;;;;23.84;46.67;92729.31;4751519;30;20547;-76
2021/06/23 13:44:08;;;;;;;22.45;7.85;;;;;;;23.97;46.00;92745.16;4751417;30;20048;-76
2021/06/23 13:46:35;;;;;;;15.40;6.78;;;;;;;23.98;46.82;92746.69;4750221;30;20032;-76
2021/06/23 13:49:01;;;;;;;20.90;6.75;;;;;;;23.78;46.03;92738.81;4751263;30;20499;-76
2021/06/23 13:51:27;;;;;;;16.80;6.40;;;;;;;23.89;48.25;92729.03;4751478;30;20072;-76
2021/06/23 13:53:52;;;;;;;17.70;7.07;;;;;;;23.71;47.36;92749.38;4751102;30;20101;-76
2021/06/23 13:56:18;;;;;;;21.85;7.80;;;;;;;23.78;47.84;92751.41;4751312;30;20052;-76
2021/06/23 13:58:44;;;;;;;15.02;7.07;;;;;;;23.66;48.48;92747.00;4720830;30;20221;-76
2021/06/23 14:01:10;;;;;;;19.48;6.95;;;;;;;23.62;49.47;92740.84;4720572;30;20044;-76
2021/06/23 14:03:35;;;;;;;16.83;6.80;;;;;;;23.67;50.18;92733.31;4735219;30;20052;-76
2021/06/23 14:06:01;;;;;;;19.67;7.78;;;;;;;23.61;48.46;92734.75;4751904;30;20047;-75
2021/06/23 14:08:26;;;;;;;19.60;7.25;;;;;;;23.34;51.01;92731.31;4751513;30;20048;-75
2021/06/23 14:10:52;;;;;;;23.98;7.50;;;;;;;23.20;50.35;92718.53;4735390;30;20566;-75
2021/06/23 14:13:18;;;;;;;17.27;7.05;;;;;;;23.23;50.47;92725.03;4751515;30;20048;-75
2021/06/23 14:15:43;;;;;;;15.52;7.13;;;;;;;23.12;51.12;92724.88;4751649;30;20108;-76
2021/06/23 14:18:09;;;;;;;12.00;6.25;;;;;;;23.04;49.79;92731.25;4734609;30;20062;-76
2021/06/23 14:20:35;;;;;;;22.13;7.45;;;;;;;22.79;50.64;92742.28;4750940;30;20064;-76
2021/06/23 14:23:01;;;;;;;16.17;6.90;;;;;;;22.49;51.21;92755.44;4750479;30;20499;-76
2021/06/23 14:25:27;;;;;;;20.63;7.80;;;;;;;22.31;52.51;92778.34;4750802;30;20079;-76
2021/06/23 14:27:52;;;;;;;24.80;7.70;;;;;;;22.12;51.85;92790.53;4753959;30;20048;-76
2021/06/23 14:30:20;;;;;;;17.95;7.53;;;;;;;21.96;53.04;92811.16;4753560;30;20056;-76
2021/06/23 14:32:47;;;;;;;20.13;7.07;;;;;;;21.75;52.35;92812.25;4768669;30;20055;-75
2021/06/23 14:35:16;;;;;;;13.13;5.70;;;;;;;21.80;53.39;92809.31;4767928;30;20092;-77
2021/06/23 14:37:42;;;;;;;13.05;6.13;;;;;;;21.73;53.13;92814.50;4768333;30;20048;-76
2021/06/23 14:40:08;;;;;;;12.65;6.13;;;;;;;21.77;53.19;92812.69;4768363;30;20135;-76
2021/06/23 14:42:35;;;;;;;16.08;5.78;;;;;;;21.64;53.63;92816.56;4768259;30;20043;-76
2021/06/23 14:45:00;;;;;;;16.77;6.47;;;;;;;21.41;54.72;92809.22;4768556;30;20062;-79
2021/06/23 14:47:26;;;;;;;18.13;6.18;;;;;;;21.36;55.83;92814.00;4770453;30;20495;-78
2021/06/23 14:49:52;;;;;;;21.95;6.63;;;;;;;21.42;55.14;92810.00;4770197;30;20054;-78
2021/06/23 14:52:18;;;;;;;25.30;7.95;;;;;;;21.38;54.44;92801.88;4769004;30;20652;-78
2021/06/23 14:54:43;;;;;;;14.43;6.97;;;;;;;21.36;55.03;92801.44;4768372;30;20047;-78
2021/06/23 14:57:10;;;;;;;15.40;6.50;;;;;;;21.39;53.96;92790.13;4739653;30;20043;-78
2021/06/23 14:59:36;;;;;;;15.80;6.72;;;;;;;21.38;53.03;92788.56;4770615;30;20124;-78
2021/06/23 15:02:02;;;;;;;17.80;6.20;;;;;;;21.23;54.96;92785.91;4769316;30;20520;-79
2021/06/23 15:04:28;;;;;;;16.73;6.03;;;;;;;21.19;53.54;92785.84;4754790;30;20376;-78
2021/06/23 15:06:53;;;;;;;18.48;6.38;;;;;;;21.25;54.02;92795.09;4768868;30;20152;-78
2021/06/23 15:09:19;;;;;;;12.50;5.70;;;;;;;21.23;53.41;92791.25;4754018;30;20046;-78
2021/06/23 15:11:44;;;;;;;17.45;5.78;;;;;;;21.04;55.25;92792.72;4770390;30;20055;-78
2021/06/23 15:14:10;;;;;;;15.90;6.13;;;;;;;21.04;54.64;92783.97;4753340;30;20142;-78
2021/06/23 15:16:36;;;;;;;15.65;6.20;;;;;;;21.07;53.94;92769.97;4770041;30;20260;-78
2021/06/23 15:19:03;;;;;;;12.85;5.43;;;;;;;20.90;54.10;92745.25;4769727;30;20509;-78
2021/06/23 15:21:28;;;;;;;13.57;5.57;;;;;;;20.92;54.37;92764.31;4769206;30;20360;-78